createdAt,value
2018-09-24T00:01:48.086Z,98066.63
2018-09-24T00:04:17.331Z,98071.30
2018-09-24T00:06:46.659Z,98062.31
2018-09-24T00:09:15.919Z,98061.09
2018-09-24T00:11:45.181Z,98065.28
2018-09-24T00:14:14.638Z,98068.30
2018-09-24T00:16:44.087Z,98067.08
2018-09-24T00:19:13.192Z,98061.50
2018-09-24T00:21:42.591Z,98055.63
2018-09-24T00:24:11.923Z,98057.72
2018-09-24T00:26:41.128Z,98055.89
2018-09-24T00:29:10.397Z,98053.63
2018-09-24T00:31:39.471Z,98054.30
2018-09-24T00:34:08.572Z,98053.64
2018-09-24T00:36:37.610Z,98047.91
2018-09-24T00:39:08.724Z,98040.70
2018-09-24T00:41:38.302Z,98040.70
2018-09-24T00:44:07.803Z,98041.56
2018-09-24T00:46:37.047Z,98030.95
2018-09-24T00:49:06.364Z,98035.20
2018-09-24T00:51:35.299Z,98027.95
2018-09-24T00:54:04.523Z,98030.45
2018-09-24T00:56:33.361Z,98026.27
2018-09-24T00:59:02.667Z,98026.46
2018-09-24T01:01:31.774Z,98032.44
2018-09-24T01:04:01.079Z,98032.05
2018-09-24T01:06:30.431Z,98027.99
2018-09-24T01:08:59.763Z,98023.61
2018-09-24T01:11:29.148Z,98025.80
2018-09-24T01:13:58.405Z,98025.91
2018-09-24T01:16:27.417Z,98022.48
2018-09-24T01:18:56.756Z,98023.61
2018-09-24T01:21:25.931Z,98018.30
2018-09-24T01:23:55.039Z,98015.63
2018-09-24T01:26:24.428Z,98020.59
2018-09-24T01:28:53.347Z,98013.75
2018-09-24T01:31:22.525Z,98009.77
2018-09-24T01:33:51.895Z,98007.87
2018-09-24T01:36:21.137Z,97998.77
2018-09-24T01:38:50.391Z,97994.98
2018-09-24T01:41:19.590Z,97993.06
2018-09-24T01:43:48.584Z,97997.80
2018-09-24T01:46:17.771Z,97991.83
2018-09-24T01:48:47.071Z,97995.73
2018-09-24T01:51:16.048Z,97991.36
2018-09-24T01:53:45.367Z,97994.00
2018-09-24T01:56:14.712Z,97989.45
2018-09-24T01:58:44.037Z,97993.27
2018-09-24T02:01:13.231Z,97991.17
2018-09-24T02:03:42.207Z,97988.69
2018-09-24T02:06:11.215Z,97990.39
2018-09-24T02:08:43.791Z,97996.75
2018-09-24T02:11:13.285Z,97993.44
2018-09-24T02:13:49.644Z,97999.02
2018-09-24T02:16:19.491Z,97997.05
2018-09-24T02:18:49.468Z,97987.95
2018-09-24T02:21:19.219Z,97990.02
2018-09-24T02:23:48.427Z,97980.16
2018-09-24T02:26:17.578Z,97973.59
2018-09-24T02:28:46.835Z,97974.92
2018-09-24T02:31:15.720Z,97970.95
2018-09-24T02:33:44.749Z,97973.34
2018-09-24T02:36:13.783Z,97967.83
2018-09-24T02:38:42.887Z,97960.22
2018-09-24T02:41:12.162Z,97956.44
2018-09-24T02:43:41.537Z,97960.56
2018-09-24T02:46:10.732Z,97958.30
2018-09-24T02:48:39.771Z,97962.08
2018-09-24T02:51:08.762Z,97961.68
2018-09-24T02:53:40.916Z,97962.91
2018-09-24T02:56:10.491Z,97966.73
2018-09-24T02:58:39.546Z,97959.44
2018-09-24T03:01:08.974Z,97959.02
2018-09-24T03:03:38.227Z,97956.97
2018-09-24T03:06:06.968Z,97949.93
2018-09-24T03:08:37.227Z,97953.35
2018-09-24T03:11:06.543Z,97944.83
2018-09-24T03:13:35.424Z,97944.26
2018-09-24T03:16:04.564Z,97949.38
2018-09-24T03:18:33.819Z,97947.84
2018-09-24T03:21:03.028Z,97951.06
2018-09-24T03:23:32.316Z,97955.23
2018-09-24T03:26:01.275Z,97949.56
2018-09-24T03:28:30.199Z,97948.22
2018-09-24T03:30:59.184Z,97944.22
2018-09-24T03:33:28.692Z,97947.22
2018-09-24T03:35:58.035Z,97947.45
2018-09-24T03:38:27.264Z,97944.98
2018-09-24T03:40:56.512Z,97949.30
2018-09-24T03:43:25.784Z,97946.90
2018-09-24T03:45:55.108Z,97947.33
2018-09-24T03:48:24.595Z,97940.40
2018-09-24T03:50:53.799Z,97944.98
2018-09-24T03:53:23.084Z,97940.76
2018-09-24T03:55:52.142Z,97936.50
2018-09-24T03:58:21.519Z,97935.93
2018-09-24T04:00:51.303Z,97926.01
2018-09-24T04:03:20.637Z,97914.23
2018-09-24T04:05:54.469Z,97915.09
2018-09-24T04:08:28.971Z,97911.52
2018-09-24T04:11:03.312Z,97905.78
2018-09-24T04:13:37.494Z,97897.52
2018-09-24T04:16:11.755Z,97891.89
2018-09-24T04:18:45.701Z,97901.45
2018-09-24T04:21:19.973Z,97905.27
2018-09-24T04:23:54.313Z,97910.91
2018-09-24T04:26:28.471Z,97902.03
2018-09-24T04:29:02.881Z,97907.98
2018-09-24T04:31:37.191Z,97911.86
2018-09-24T04:34:11.636Z,97916.98
2018-09-24T04:36:45.792Z,97912.26
2018-09-24T04:39:20.046Z,97912.45
2018-09-24T04:41:54.191Z,97917.93
2018-09-24T04:44:28.156Z,97914.41
2018-09-24T04:47:02.386Z,97914.88
2018-09-24T04:49:36.820Z,97917.90
2018-09-24T04:52:11.215Z,97915.59
2018-09-24T04:54:45.543Z,97911.21
2018-09-24T04:57:19.624Z,97911.70
2018-09-24T04:59:53.686Z,97911.63
2018-09-24T05:02:27.737Z,97916.31
2018-09-24T05:05:02.013Z,97908.95
2018-09-24T05:07:36.284Z,97910.89
2018-09-24T05:10:10.863Z,97908.81
2018-09-24T05:12:45.270Z,97909.67
2018-09-24T05:15:19.787Z,97901.72
2018-09-24T05:17:54.140Z,97897.53
2018-09-24T05:20:28.047Z,97902.38
2018-09-24T05:23:02.187Z,97897.84
2018-09-24T05:25:36.370Z,97895.45
2018-09-24T05:28:10.607Z,97894.23
2018-09-24T05:30:45.104Z,97888.00
2018-09-24T05:33:19.264Z,97884.98
2018-09-24T05:35:53.342Z,97873.70
2018-09-24T05:38:27.553Z,97879.84
2018-09-24T05:41:01.684Z,97871.61
2018-09-24T05:43:35.591Z,97868.74
2018-09-24T05:46:10.067Z,97868.07
2018-09-24T05:48:44.510Z,97866.05
2018-09-24T05:51:18.800Z,97870.38
2018-09-24T05:53:53.084Z,97865.52
2018-09-24T05:56:27.357Z,97866.28
2018-09-24T05:59:01.705Z,97877.69
2018-09-24T06:01:35.834Z,97873.39
2018-09-24T06:04:10.175Z,97873.16
2018-09-24T06:06:44.390Z,97871.50
2018-09-24T06:09:18.801Z,97881.53
2018-09-24T06:11:52.743Z,97868.66
2018-09-24T06:14:26.999Z,97869.38
2018-09-24T06:17:01.487Z,97870.06
2018-09-24T06:19:35.931Z,97867.03
2018-09-24T06:22:10.096Z,97861.47
2018-09-24T06:24:44.368Z,97863.09
2018-09-24T06:27:18.523Z,97860.39
2018-09-24T06:29:52.687Z,97848.64
2018-09-24T06:32:27.018Z,97850.80
2018-09-24T06:35:01.311Z,97840.27
2018-09-24T06:37:35.406Z,97841.61
2018-09-24T06:40:09.631Z,97839.05
2018-09-24T06:42:43.894Z,97837.86
2018-09-24T06:45:18.377Z,97835.58
2018-09-24T06:47:52.359Z,97836.37
2018-09-24T06:50:26.591Z,97834.99
2018-09-24T06:53:00.833Z,97833.77
2018-09-24T06:55:35.150Z,97824.65
2018-09-24T06:58:09.360Z,97824.28
2018-09-24T07:00:43.287Z,97819.80
2018-09-24T07:03:17.499Z,97823.09
2018-09-24T07:05:51.661Z,97818.85
2018-09-24T07:08:25.915Z,97821.51
2018-09-24T07:11:00.124Z,97821.56
2018-09-24T07:13:34.241Z,97823.21
2018-09-24T07:16:08.407Z,97829.14
2018-09-24T07:18:42.524Z,97828.94
2018-09-24T07:21:16.723Z,97829.16
2018-09-24T07:23:51.010Z,97823.11
2018-09-24T07:26:24.926Z,97823.60
2018-09-24T07:28:59.099Z,97823.02
2018-09-24T07:31:32.963Z,97821.67
2018-09-24T07:34:07.204Z,97815.02
2018-09-24T07:36:41.196Z,97815.73
2018-09-24T07:39:15.780Z,97815.97
2018-09-24T07:41:49.939Z,97815.16
2018-09-24T07:44:24.166Z,97818.48
2018-09-24T07:46:58.503Z,97822.75
2018-09-24T07:49:32.679Z,97825.20
2018-09-24T07:52:06.990Z,97819.08
2018-09-24T07:54:41.116Z,97819.68
2018-09-24T07:57:15.362Z,97819.63
2018-09-24T07:59:49.740Z,97821.57
2018-09-24T08:02:23.986Z,97816.30
2018-09-24T08:05:05.051Z,97821.57
2018-09-24T08:07:39.091Z,97822.33
2018-09-24T08:10:13.367Z,97817.03
2018-09-24T08:12:47.685Z,97814.59
2018-09-24T08:15:21.943Z,97813.54
2018-09-24T08:17:56.356Z,97813.63
2018-09-24T08:20:30.647Z,97810.38
2018-09-24T08:23:04.535Z,97803.66
2018-09-24T08:25:38.663Z,97801.42
2018-09-24T08:28:12.663Z,97798.72
2018-09-24T08:30:46.893Z,97798.20
2018-09-24T08:33:21.092Z,97793.00
2018-09-24T08:35:55.323Z,97794.81
2018-09-24T08:38:29.391Z,97787.19
2018-09-24T08:41:03.579Z,97788.63
2018-09-24T08:43:37.708Z,97782.97
2018-09-24T08:46:11.903Z,97775.89
2018-09-24T08:48:46.315Z,97782.31
2018-09-24T08:51:20.491Z,97779.14
2018-09-24T08:53:54.799Z,97771.92
2018-09-24T08:56:29.035Z,97774.55
2018-09-24T08:59:03.076Z,97774.55
2018-09-24T09:01:37.471Z,97766.88
2018-09-24T09:04:11.560Z,97757.34
2018-09-24T09:06:45.831Z,97753.56
2018-09-24T09:09:19.983Z,97754.42
2018-09-24T09:11:54.095Z,97756.31
2018-09-24T09:14:28.179Z,97751.00
2018-09-24T09:17:02.574Z,97752.75
2018-09-24T09:19:36.835Z,97755.27
2018-09-24T09:22:10.971Z,97748.09
2018-09-24T09:24:45.139Z,97745.98
2018-09-24T09:27:19.304Z,97733.29
2018-09-24T09:29:53.544Z,97740.15
2018-09-24T09:32:27.807Z,97734.09
2018-09-24T09:35:01.936Z,97741.45
2018-09-24T09:37:36.207Z,97733.84
2018-09-24T09:40:10.651Z,97726.34
2018-09-24T09:42:45.010Z,97726.34
2018-09-24T09:45:19.363Z,97723.66
2018-09-24T09:47:53.531Z,97727.16
2018-09-24T09:50:27.847Z,97729.84
2018-09-24T09:53:02.120Z,97732.52
2018-09-24T09:55:36.283Z,97732.26
2018-09-24T09:58:10.803Z,97728.64
2018-09-24T10:00:44.899Z,97720.08
2018-09-24T10:03:18.825Z,97725.60
2018-09-24T10:05:53.061Z,97722.16
2018-09-24T10:08:27.483Z,97714.09
2018-09-24T10:11:02.044Z,97714.20
2018-09-24T10:13:36.151Z,97717.42
2018-09-24T10:16:10.121Z,97721.60
2018-09-24T10:18:44.147Z,97713.36
2018-09-24T10:21:18.279Z,97710.73
2018-09-24T10:23:52.328Z,97705.62
2018-09-24T10:26:26.547Z,97692.55
2018-09-24T10:29:00.662Z,97685.98
2018-09-24T10:31:34.976Z,97680.13
2018-09-24T10:34:09.235Z,97671.00
2018-09-24T10:36:43.560Z,97668.50
2018-09-24T10:39:17.812Z,97655.25
2018-09-24T10:41:51.953Z,97655.80
2018-09-24T10:44:26.120Z,97652.48
2018-09-24T10:47:00.343Z,97651.94
2018-09-24T10:49:34.687Z,97647.84
2018-09-24T10:52:08.564Z,97641.20
2018-09-24T10:54:42.766Z,97650.04
2018-09-24T10:57:16.928Z,97643.59
2018-09-24T10:59:51.263Z,97642.64
2018-09-24T11:02:25.872Z,97643.57
2018-09-24T11:05:00.074Z,97641.75
2018-09-24T11:07:34.179Z,97639.73
2018-09-24T11:10:08.643Z,97636.30
2018-09-24T11:12:42.611Z,97628.94
2018-09-24T11:15:17.240Z,97621.80
2018-09-24T11:17:51.878Z,97618.59
2018-09-24T11:20:25.926Z,97617.83
2018-09-24T11:23:00.175Z,97610.25
2018-09-24T11:25:34.178Z,97607.28
2018-09-24T11:28:08.168Z,97600.53
2018-09-24T11:30:42.358Z,97602.22
2018-09-24T11:33:16.447Z,97601.11
2018-09-24T11:35:50.740Z,97599.64
2018-09-24T11:38:25.060Z,97590.63
2018-09-24T11:40:59.736Z,97591.19
2018-09-24T11:43:33.945Z,97596.66
2018-09-24T11:46:08.199Z,97594.08
2018-09-24T11:48:42.688Z,97593.61
2018-09-24T11:51:16.776Z,97588.26
2018-09-24T11:53:50.968Z,97584.80
2018-09-24T11:56:25.229Z,97578.61
2018-09-24T11:59:00.434Z,97566.19
2018-09-24T12:01:34.552Z,97566.59
2018-09-24T12:04:09.664Z,97570.40
2018-09-24T12:06:43.927Z,97570.04
2018-09-24T12:09:18.359Z,97562.35
2018-09-24T12:11:52.288Z,97561.48
2018-09-24T12:14:26.224Z,97562.37
2018-09-24T12:17:00.582Z,97555.47
2018-09-24T12:19:34.938Z,97545.20
2018-09-24T12:22:09.106Z,97543.42
2018-09-24T12:24:43.267Z,97538.55
2018-09-24T12:27:17.419Z,97540.94
2018-09-24T12:29:52.329Z,97536.83
2018-09-24T12:32:26.791Z,97531.08
2018-09-24T12:35:01.157Z,97541.30
2018-09-24T12:37:35.120Z,97527.20
2018-09-24T12:40:09.385Z,97521.62
2018-09-24T12:42:43.232Z,97520.47
2018-09-24T12:45:17.716Z,97518.36
2018-09-24T12:47:52.088Z,97510.09
2018-09-24T12:50:26.319Z,97512.19
2018-09-24T12:53:00.732Z,97511.16
2018-09-24T12:55:35.068Z,97506.34
2018-09-24T12:58:09.279Z,97509.77
2018-09-24T13:00:43.622Z,97503.68
2018-09-24T13:03:17.907Z,97502.84
2018-09-24T13:05:52.076Z,97486.13
2018-09-24T13:08:26.286Z,97492.48
2018-09-24T13:11:00.236Z,97485.70
2018-09-24T13:13:34.356Z,97476.49
2018-09-24T13:16:08.628Z,97473.13
2018-09-24T13:18:42.739Z,97461.45
2018-09-24T13:21:16.835Z,97455.39
2018-09-24T13:23:50.990Z,97448.25
2018-09-24T13:26:25.280Z,97446.05
2018-09-24T13:28:59.220Z,97446.11
2018-09-24T13:31:33.316Z,97449.30
2018-09-24T13:34:07.579Z,97444.19
2018-09-24T13:36:41.990Z,97437.03
2018-09-24T13:39:16.620Z,97441.31
2018-09-24T13:41:50.663Z,97432.58
2018-09-24T13:44:25.196Z,97443.55
2018-09-24T13:46:59.070Z,97432.76
2018-09-24T13:49:33.254Z,97426.84
2018-09-24T13:52:07.724Z,97423.70
2018-09-24T13:54:42.055Z,97418.92
2018-09-24T13:57:16.178Z,97423.20
2018-09-24T13:59:50.439Z,97423.41
2018-09-24T14:02:24.589Z,97423.89
2018-09-24T14:04:58.792Z,97422.30
2018-09-24T14:07:32.976Z,97424.28
2018-09-24T14:10:07.383Z,97422.12
2018-09-24T14:12:41.687Z,97420.70
2018-09-24T14:15:15.943Z,97423.05
2018-09-24T14:17:50.287Z,97429.19
2018-09-24T14:20:24.606Z,97426.63
2018-09-24T14:22:58.843Z,97428.09
2018-09-24T14:25:33.224Z,97430.13
2018-09-24T14:28:07.364Z,97427.66
2018-09-24T14:30:41.621Z,97426.09
2018-09-24T14:33:15.743Z,97447.33
2018-09-24T14:35:50.093Z,97491.17
2018-09-24T14:38:24.555Z,97523.48
2018-09-24T14:40:58.891Z,97545.47
2018-09-24T14:43:33.255Z,97582.88
2018-09-24T14:46:07.648Z,97604.81
2018-09-24T14:48:41.584Z,97627.41
2018-09-24T14:51:15.755Z,97640.66
2018-09-24T14:53:49.883Z,97651.37
2018-09-24T14:56:24.480Z,97670.45
2018-09-24T14:58:58.915Z,97693.02
2018-09-24T15:01:33.626Z,97721.30
2018-09-24T15:04:07.995Z,97747.13
2018-09-24T15:06:42.379Z,97771.67
2018-09-24T15:09:16.488Z,97767.72
2018-09-24T15:11:50.722Z,97760.81
2018-09-24T15:14:24.871Z,97781.94
2018-09-24T15:16:59.060Z,97781.52
2018-09-24T15:19:33.316Z,97791.91
2018-09-24T15:22:07.705Z,97815.88
2018-09-24T15:24:41.942Z,97827.33
2018-09-24T15:27:16.188Z,97824.66
2018-09-24T15:29:50.395Z,97840.00
2018-09-24T15:32:25.019Z,97837.10
2018-09-24T15:34:59.471Z,97840.47
2018-09-24T15:37:33.806Z,97848.36
2018-09-24T15:40:07.956Z,97845.66
2018-09-24T15:42:41.931Z,97842.23
2018-09-24T15:45:15.784Z,97854.44
2018-09-24T15:47:49.944Z,97860.40
2018-09-24T15:50:24.123Z,97862.16
2018-09-24T15:52:58.572Z,97863.30
2018-09-24T15:55:32.640Z,97876.84
2018-09-24T15:58:06.696Z,97881.55
2018-09-24T16:00:40.944Z,97889.20
2018-09-24T16:03:15.155Z,97898.94
2018-09-24T16:05:49.597Z,97903.08
2018-09-24T16:08:23.672Z,97906.48
2018-09-24T16:10:57.763Z,97916.70
2018-09-24T16:13:31.664Z,97921.08
2018-09-24T16:16:05.772Z,97928.95
2018-09-24T16:18:40.023Z,97919.84
2018-09-24T16:21:14.219Z,97928.70
2018-09-24T16:23:48.347Z,97933.92
2018-09-24T16:26:22.495Z,97947.94
2018-09-24T16:28:56.674Z,97945.77
2018-09-24T16:31:31.012Z,97961.98
2018-09-24T16:34:05.337Z,97968.86
2018-09-24T16:36:39.419Z,97975.27
2018-09-24T16:39:14.340Z,97981.44
2018-09-24T16:41:48.323Z,97987.27
2018-09-24T16:44:22.719Z,98004.37
2018-09-24T16:46:56.910Z,98002.22
2018-09-24T16:49:30.863Z,98005.20
2018-09-24T16:52:05.378Z,98017.05
2018-09-24T16:54:39.793Z,98025.31
2018-09-24T16:57:13.951Z,98026.76
2018-09-24T16:59:48.040Z,98033.06
2018-09-24T17:02:22.406Z,98043.14
2018-09-24T17:04:56.684Z,98046.14
2018-09-24T17:07:31.118Z,98049.67
2018-09-24T17:10:05.868Z,98052.86
2018-09-24T17:12:40.332Z,98045.87
2018-09-24T17:15:14.955Z,98051.78
2018-09-24T17:17:50.976Z,98052.48
2018-09-24T17:20:25.288Z,98064.41
2018-09-24T17:22:59.415Z,98073.38
2018-09-24T17:25:33.614Z,98068.75
2018-09-24T17:28:07.663Z,98070.36
2018-09-24T17:30:41.932Z,98081.28
2018-09-24T17:33:16.092Z,98081.95
2018-09-24T17:35:50.066Z,98098.95
2018-09-24T17:38:24.257Z,98101.02
2018-09-24T17:40:58.573Z,98099.89
2018-09-24T17:43:33.026Z,98101.37
2018-09-24T17:46:07.271Z,98111.27
2018-09-24T17:48:41.574Z,98112.16
2018-09-24T17:51:15.963Z,98117.09
2018-09-24T17:53:51.249Z,98129.85
2018-09-24T17:56:27.104Z,98128.98
2018-09-24T17:59:01.547Z,98135.97
2018-09-24T18:01:35.893Z,98143.40
2018-09-24T18:04:10.023Z,98151.02
2018-09-24T18:06:44.371Z,98158.41
2018-09-24T18:09:18.579Z,98162.22
2018-09-24T18:11:52.907Z,98172.30
2018-09-24T18:14:28.127Z,98171.72
2018-09-24T18:17:02.715Z,98179.13
2018-09-24T18:19:37.068Z,98186.78
2018-09-24T18:22:12.490Z,98181.16
2018-09-24T18:24:48.035Z,98193.40
2018-09-24T18:27:22.270Z,98200.51
2018-09-24T18:29:57.778Z,98203.35
2018-09-24T18:32:32.116Z,98217.56
2018-09-24T18:35:07.071Z,98224.19
2018-09-24T18:37:41.795Z,98225.21
2018-09-24T18:40:17.094Z,98226.05
2018-09-24T18:42:54.420Z,98230.74
2018-09-24T18:45:29.333Z,98228.09
2018-09-24T18:48:04.221Z,98241.42
2018-09-24T18:50:38.985Z,98238.09
2018-09-24T18:53:13.257Z,98229.66
2018-09-24T18:55:48.344Z,98235.44
2018-09-24T18:58:22.539Z,98244.13
2018-09-24T19:00:56.727Z,98247.12
2018-09-24T19:03:31.679Z,98247.58
2018-09-24T19:06:06.123Z,98248.44
2018-09-24T19:08:41.522Z,98255.35
2018-09-24T19:11:27.646Z,98264.33
2018-09-24T19:13:52.321Z,98267.84
2018-09-24T19:16:29.756Z,98269.91
2018-09-24T19:19:05.712Z,98276.58
2018-09-24T19:21:41.250Z,98279.78
2018-09-24T19:24:15.776Z,98275.12
2018-09-24T19:26:51.308Z,98284.17
2018-09-24T19:29:25.724Z,98288.47
2018-09-24T19:32:03.108Z,98309.92
2018-09-24T19:34:37.452Z,98304.70
2018-09-24T19:37:12.443Z,98293.08
2018-09-24T19:39:46.476Z,98310.18
2018-09-24T19:42:20.747Z,98311.45
2018-09-24T19:44:54.979Z,98320.49
2018-09-24T19:47:29.522Z,98322.31
2018-09-24T19:50:03.932Z,98323.09
2018-09-24T19:52:38.139Z,98320.20
2018-09-24T19:55:12.463Z,98321.36
2018-09-24T19:57:46.767Z,98321.53
2018-09-24T20:00:20.937Z,98324.89
2018-09-24T20:02:54.866Z,98329.11
2018-09-24T20:05:29.219Z,98346.92
2018-09-24T20:08:03.508Z,98352.84
2018-09-24T20:10:37.526Z,98357.98
2018-09-24T20:13:11.648Z,98358.91
2018-09-24T20:15:45.965Z,98360.56
2018-09-24T20:18:19.927Z,98365.03
2018-09-24T20:20:54.146Z,98370.80
2018-09-24T20:23:28.437Z,98363.37
2018-09-24T20:26:02.816Z,98363.53
2018-09-24T20:28:37.171Z,98363.31
2018-09-24T20:31:11.411Z,98371.27
2018-09-24T20:33:45.634Z,98374.04
2018-09-24T20:36:20.084Z,98369.22
2018-09-24T20:38:54.174Z,98378.39
2018-09-24T20:41:28.423Z,98375.23
2018-09-24T20:44:02.575Z,98388.78
2018-09-24T20:46:36.692Z,98396.46
2018-09-24T20:49:11.001Z,98407.28
2018-09-24T20:51:45.140Z,98402.78
2018-09-24T20:54:19.055Z,98414.50
2018-09-24T20:56:53.480Z,98423.36
2018-09-24T20:59:27.665Z,98428.69
2018-09-24T21:02:02.128Z,98431.90
2018-09-24T21:04:36.414Z,98423.31
2018-09-24T21:07:10.575Z,98435.75
2018-09-24T21:09:44.854Z,98418.70
2018-09-24T21:12:19.291Z,98424.50
2018-09-24T21:14:53.064Z,98415.20
2018-09-24T21:17:27.275Z,98422.78
2018-09-24T21:20:01.341Z,98430.48
2018-09-24T21:22:35.655Z,98427.98
2018-09-24T21:25:09.935Z,98427.19
2018-09-24T21:27:44.207Z,98426.26
2018-09-24T21:30:18.270Z,98432.06
2018-09-24T21:32:52.208Z,98447.03
2018-09-24T21:35:26.474Z,98439.62
2018-09-24T21:38:00.936Z,98436.77
2018-09-24T21:40:35.200Z,98436.91
2018-09-24T21:43:09.236Z,98436.84
2018-09-24T21:45:43.579Z,98435.52
2018-09-24T21:48:17.731Z,98444.31
2018-09-24T21:50:51.966Z,98446.09
2018-09-24T21:53:26.035Z,98449.98
2018-09-24T21:56:00.319Z,98451.09
2018-09-24T21:58:34.819Z,98460.49
2018-09-24T22:01:09.064Z,98455.34
2018-09-24T22:03:43.219Z,98472.45
2018-09-24T22:06:17.490Z,98474.37
2018-09-24T22:08:51.715Z,98473.63
2018-09-24T22:11:25.892Z,98486.11
2018-09-24T22:14:00.068Z,98494.70
2018-09-24T22:16:34.441Z,98507.39
2018-09-24T22:19:08.754Z,98503.01
2018-09-24T22:21:42.987Z,98509.21
2018-09-24T22:24:17.171Z,98517.88
2018-09-24T22:26:51.232Z,98521.02
2018-09-24T22:29:25.571Z,98519.30
2018-09-24T22:31:59.694Z,98528.53
2018-09-24T22:34:34.400Z,98517.80
2018-09-24T22:37:08.559Z,98531.31
2018-09-24T22:39:42.580Z,98529.64
2018-09-24T22:42:16.867Z,98530.45
2018-09-24T22:44:51.068Z,98539.63
2018-09-24T22:47:25.321Z,98539.06
2018-09-24T22:49:59.345Z,98543.72
2018-09-24T22:52:33.630Z,98534.69
2018-09-24T22:55:08.084Z,98537.84
2018-09-24T22:57:42.368Z,98534.99
2018-09-24T23:00:16.250Z,98539.58
2018-09-24T23:02:50.506Z,98543.92
2018-09-24T23:05:24.647Z,98545.30
2018-09-24T23:07:58.529Z,98541.49
2018-09-24T23:10:32.491Z,98559.94
2018-09-24T23:13:06.836Z,98571.50
2018-09-24T23:15:41.183Z,98575.58
2018-09-24T23:18:15.290Z,98581.04
2018-09-24T23:20:49.659Z,98580.11
2018-09-24T23:23:23.852Z,98576.78
2018-09-24T23:25:58.103Z,98590.53
2018-09-24T23:28:31.929Z,98588.77
2018-09-24T23:31:06.219Z,98599.82
2018-09-24T23:33:40.334Z,98611.83
2018-09-24T23:36:14.556Z,98618.70
2018-09-24T23:38:48.744Z,98619.04
2018-09-24T23:41:22.871Z,98626.11
2018-09-24T23:43:57.079Z,98632.20
2018-09-24T23:46:31.475Z,98634.58
2018-09-24T23:49:05.692Z,98630.59
2018-09-24T23:51:39.924Z,98635.00
2018-09-24T23:54:14.126Z,98635.39
2018-09-24T23:56:48.456Z,98644.80
2018-09-24T23:59:22.565Z,98632.44
